Time;durP1;ratioP1;P1;durP2;ratioP2;P2;SDS_P1;SDS_P2;PMS_P1;PMS_P2;Temp;Humidity;BMP_temperature;BMP_pressure;BME280_temperature;BME280_humidity;BME280_pressure;Samples;Min_cycle;Max_cycle;Signal;HPM_P1;HPM_P2
2022/03/11 00:00:00;;;;;;;17.95;8.10;;;;;;;7.37;42.97;101704.00;5069759;28;20028;-82
2022/03/11 00:02:25;;;;;;;13.88;7.88;;;;;;;7.35;43.14;101704.00;5069221;28;20036;-82
2022/03/11 00:04:50;;;;;;;16.52;8.40;;;;;;;7.34;42.98;101707.53;5070055;28;20020;-82
2022/03/11 00:07:15;;;;;;;15.07;8.35;;;;;;;7.34;43.00;101706.69;5070537;28;20066;-82
2022/03/11 00:09:41;;;;;;;16.70;8.18;;;;;;;7.32;42.79;101700.53;5070356;28;20038;-82
2022/03/11 00:12:07;;;;;;;18.05;9.27;;;;;;;7.28;43.59;101697.09;5063881;28;20025;-81
2022/03/11 00:14:34;;;;;;;22.02;9.05;;;;;;;7.24;43.65;101694.53;5058993;28;20037;-82
2022/03/11 00:17:00;;;;;;;12.75;7.82;;;;;;;7.19;44.22;101691.97;5046220;28;20802;-82
2022/03/11 00:19:25;;;;;;;14.40;7.40;;;;;;;7.19;43.08;101689.34;5070847;28;20060;-82
2022/03/11 00:21:50;;;;;;;14.35;7.80;;;;;;;7.18;43.18;101691.97;5070487;28;20041;-82
2022/03/11 00:24:15;;;;;;;15.27;7.60;;;;;;;7.17;43.31;101691.09;5049262;28;20036;-82
2022/03/11 00:26:41;;;;;;;14.90;8.18;;;;;;;7.10;43.93;101682.44;5070494;28;20016;-81
2022/03/11 00:29:06;;;;;;;14.27;7.72;;;;;;;7.08;43.36;101688.56;5070879;28;20098;-82
2022/03/11 00:31:32;;;;;;;13.50;7.47;;;;;;;7.14;43.53;101685.91;5063148;28;20032;-82
2022/03/11 00:33:58;;;;;;;15.63;8.68;;;;;;;7.07;43.52;101689.47;5070112;28;20036;-82
2022/03/11 00:36:24;;;;;;;17.38;7.88;;;;;;;7.02;43.96;101684.28;5064682;28;20035;-82
2022/03/11 00:38:50;;;;;;;16.38;7.75;;;;;;;7.08;43.54;101685.94;5050294;28;20021;-82
2022/03/11 00:41:16;;;;;;;15.30;7.57;;;;;;;7.06;44.27;101691.25;5047986;28;21031;-82
2022/03/11 00:43:42;;;;;;;14.93;8.38;;;;;;;7.01;43.69;101679.91;5068604;28;20016;-82
2022/03/11 00:46:08;;;;;;;15.73;8.13;;;;;;;7.08;44.05;101684.19;5076709;28;20024;-82
2022/03/11 00:48:33;;;;;;;16.05;8.45;;;;;;;7.02;43.79;101681.63;5065628;28;20498;-82
2022/03/11 00:50:58;;;;;;;14.85;8.07;;;;;;;6.98;44.56;101686.94;5046091;28;20024;-82
2022/03/11 00:53:25;;;;;;;15.13;7.65;;;;;;;6.96;43.33;101675.59;5070653;28;20070;-82
2022/03/11 00:55:50;;;;;;;14.88;7.72;;;;;;;6.97;43.60;101675.56;5062547;28;20024;-82
2022/03/11 00:58:16;;;;;;;13.38;7.55;;;;;;;7.00;43.78;101672.91;5068100;28;20416;-82
2022/03/11 01:00:41;;;;;;;17.23;7.88;;;;;;;7.04;43.88;101673.72;5058518;28;20032;-82
2022/03/11 01:03:06;;;;;;;16.80;7.88;;;;;;;7.08;43.82;101671.03;5049913;28;20021;-82
2022/03/11 01:05:31;;;;;;;13.60;7.65;;;;;;;7.04;43.52;101669.38;5054335;28;20017;-82
2022/03/11 01:07:57;;;;;;;14.10;8.02;;;;;;;6.99;44.01;101660.63;5054722;28;20494;-82
2022/03/11 01:10:22;;;;;;;15.18;8.98;;;;;;;6.97;43.55;101659.81;5058918;28;20094;-82
2022/03/11 01:12:47;;;;;;;15.30;7.85;;;;;;;6.95;44.08;101658.06;5073856;28;20021;-82
2022/03/11 01:15:13;;;;;;;13.48;6.72;;;;;;;6.91;43.74;101654.63;5073900;28;20104;-82
2022/03/11 01:17:38;;;;;;;15.35;8.05;;;;;;;6.89;43.50;101644.09;5072634;28;20025;-82
2022/03/11 01:20:06;;;;;;;12.70;7.10;;;;;;;6.89;43.75;101649.38;5086548;28;20025;-82
2022/03/11 01:22:45;;;;;;;15.50;7.88;;;;;;;6.92;43.60;101647.59;5052408;28;20024;-82
2022/03/11 01:25:27;;;;;;;16.65;8.02;;;;;;;6.91;43.39;101646.75;5062914;28;20081;-82
2022/03/11 01:28:13;;;;;;;14.13;6.95;;;;;;;6.90;43.34;101639.72;5061975;28;20435;-82
2022/03/11 01:31:06;;;;;;;13.65;7.45;;;;;;;6.87;43.19;101630.13;5050925;28;20506;-82
2022/03/11 01:34:01;;;;;;;13.50;7.20;;;;;;;6.89;43.17;101640.63;5062636;28;20405;-82
2022/03/11 01:36:50;;;;;;;14.35;7.47;;;;;;;6.85;43.43;101626.66;5041152;28;20045;-82
2022/03/11 01:39:50;;;;;;;14.45;7.38;;;;;;;6.88;43.46;101628.38;5037862;28;20734;-82
2022/03/11 01:42:27;;;;;;;16.23;7.30;;;;;;;6.83;43.68;101612.66;5041387;28;20111;-82
2022/03/11 01:45:20;;;;;;;13.70;7.35;;;;;;;6.81;43.43;101617.06;5024014;28;20044;-82
2022/03/11 01:48:06;;;;;;;13.63;7.13;;;;;;;6.83;43.46;101612.66;5038904;28;20047;-82
2022/03/11 01:50:54;;;;;;;13.95;7.25;;;;;;;6.85;43.18;101610.91;5023957;28;20056;-82
2022/03/11 01:53:28;;;;;;;19.70;8.13;;;;;;;6.79;43.90;101603.06;5023083;28;20137;-82
2022/03/11 02:02:46;;;;;;;12.68;7.43;;;;;;;6.77;43.40;101588.22;5036989;28;20591;-82
2022/03/11 02:05:22;;;;;;;16.80;7.57;;;;;;;6.69;43.34;101583.03;5034311;28;20400;-82
2022/03/11 02:08:07;;;;;;;15.02;7.95;;;;;;;6.61;43.51;101569.13;5027581;28;20033;-81
2022/03/11 02:11:00;;;;;;;;;;;;;;;6.72;42.82;101572.50;5028251;28;20488;-82
2022/03/11 02:14:24;;;;;;;14.73;7.38;;;;;;;6.68;43.27;101572.56;5055342;28;19916;-82
2022/03/11 02:17:29;;;;;;;14.70;8.05;;;;;;;6.66;43.29;101564.69;4961891;28;20057;-82
2022/03/11 02:20:57;;;;;;;14.82;7.05;;;;;;;6.63;43.32;101565.59;4973074;28;20109;-82
2022/03/11 02:27:17;;;;;;;14.13;6.60;;;;;;;6.60;43.63;101557.75;4934883;28;20151;-82
2022/03/11 02:30:44;;;;;;;14.38;7.50;;;;;;;6.59;43.73;101544.66;5029127;28;20497;-82
2022/03/11 02:34:06;;;;;;;13.52;7.47;;;;;;;6.52;44.11;101541.19;5022572;28;20040;-82
2022/03/11 02:36:30;;;;;;;15.88;7.53;;;;;;;6.50;43.79;101543.00;5039551;28;20037;-82
2022/03/11 02:39:35;;;;;;;14.43;7.13;;;;;;;6.52;43.63;101535.09;5037995;28;20056;-82
2022/03/11 02:42:58;;;;;;;13.95;7.43;;;;;;;6.49;43.61;101536.00;5037982;28;20045;-82
2022/03/11 02:45:49;;;;;;;11.85;6.75;;;;;;;6.50;44.23;101531.63;4976478;28;20461;-82
2022/03/11 02:49:00;;;;;;;13.85;7.28;;;;;;;6.55;43.51;101530.66;4978342;28;20049;-82
2022/03/11 02:51:39;;;;;;;15.65;7.93;;;;;;;6.40;44.00;101520.34;4978670;28;20090;-82
2022/03/11 02:57:51;;;;;;;13.30;6.50;;;;;;;6.29;44.58;101537.97;4977587;28;20041;-82
2022/03/11 03:00:54;;;;;;;13.65;7.25;;;;;;;6.29;44.24;101530.97;4997280;28;20030;-82
2022/03/11 03:07:14;;;;;;;11.77;6.72;;;;;;;6.20;44.12;101515.34;4961117;28;20037;-82
2022/03/11 03:10:03;;;;;;;14.55;7.13;;;;;;;6.23;44.10;101520.53;4975392;28;20073;-82
2022/03/11 03:12:57;;;;;;;18.85;7.35;;;;;;;6.27;44.50;101522.25;4962690;28;20038;-82
2022/03/11 03:15:48;;;;;;;12.63;6.80;;;;;;;6.25;43.98;101524.03;4978539;28;20732;-82
2022/03/11 03:21:30;;;;;;;15.00;7.57;;;;;;;6.06;44.58;101525.09;5015886;28;20076;-82
2022/03/11 03:24:32;;;;;;;13.70;7.07;;;;;;;6.05;44.30;101521.59;5018920;28;20180;-82
2022/03/11 03:30:28;;;;;;;14.00;7.57;;;;;;;6.00;44.71;101520.78;4956701;28;20062;-82
2022/03/11 03:33:35;;;;;;;13.55;7.45;;;;;;;5.92;44.61;101506.88;4983554;28;20040;-82
2022/03/11 03:36:22;;;;;;;14.60;7.43;;;;;;;5.91;45.00;101512.09;5054588;28;20090;-82
2022/03/11 03:42:47;;;;;;;17.23;7.18;;;;;;;5.95;45.04;101514.72;5038045;28;20036;-82
2022/03/11 03:45:35;;;;;;;12.13;6.35;;;;;;;5.96;44.25;101507.72;5035974;28;20032;-82
2022/03/11 03:48:11;;;;;;;14.93;8.05;;;;;;;5.92;45.33;101500.75;5036802;28;20033;-82
2022/03/11 03:50:52;;;;;;;11.40;6.38;;;;;;;5.94;44.71;101499.00;5036021;28;20064;-82
2022/03/11 03:53:37;;;;;;;;;;;;;;;5.96;44.04;101508.59;5020402;28;20115;-82
2022/03/11 03:56:18;;;;;;;12.68;6.53;;;;;;;5.87;44.55;101496.41;5038976;28;20021;-82
2022/03/11 03:58:46;;;;;;;15.10;7.07;;;;;;;5.86;45.18;101510.41;5025390;28;20124;-82
2022/03/11 04:01:28;;;;;;;14.35;7.25;;;;;;;5.84;45.24;101499.06;5037472;28;20068;-81
2022/03/11 04:04:48;;;;;;;13.57;6.55;;;;;;;5.86;44.90;101499.91;5037516;28;20049;-81
2022/03/11 04:07:44;;;;;;;13.98;6.78;;;;;;;5.78;44.96;101495.63;5031788;28;20029;-82
2022/03/11 04:10:28;;;;;;;13.27;7.40;;;;;;;5.78;44.85;101504.38;5008215;28;20072;-82
2022/03/11 04:13:26;;;;;;;15.80;7.20;;;;;;;5.75;45.33;101499.16;5009979;28;20055;-81
2022/03/11 04:16:23;;;;;;;18.30;6.65;;;;;;;5.72;45.56;101493.91;5008003;28;20543;-82
2022/03/11 04:19:14;;;;;;;13.48;7.13;;;;;;;5.72;45.41;101504.41;5009081;28;20080;-82
2022/03/11 04:22:08;;;;;;;13.50;7.03;;;;;;;5.68;45.28;101488.72;5002188;28;20179;-82
2022/03/11 04:25:16;;;;;;;13.50;6.75;;;;;;;5.71;45.10;101488.69;5014643;28;20021;-82
2022/03/11 04:31:51;;;;;;;14.15;7.82;;;;;;;5.59;45.32;101495.78;4971311;28;20060;-82
2022/03/11 04:38:10;;;;;;;14.65;6.90;;;;;;;5.60;45.08;101488.81;4944273;28;20043;-82
2022/03/11 04:40:52;;;;;;;13.10;7.38;;;;;;;5.62;44.88;101480.03;4944569;28;20043;-82
2022/03/11 04:44:03;;;;;;;14.10;6.90;;;;;;;5.63;45.48;101478.28;4946216;28;20051;-82
2022/03/11 04:46:53;;;;;;;13.32;6.75;;;;;;;5.59;45.32;101480.03;4944107;28;20909;-82
2022/03/11 04:50:09;;;;;;;14.93;6.93;;;;;;;5.53;46.17;101477.50;4917892;28;20732;-82
2022/03/11 04:52:58;;;;;;;14.60;8.00;;;;;;;5.55;45.54;101481.00;4947861;28;20039;-82
2022/03/11 04:56:08;;;;;;;13.93;6.97;;;;;;;5.62;45.53;101485.28;4946959;28;20153;-81
2022/03/11 04:59:22;;;;;;;12.50;6.80;;;;;;;5.63;45.05;101484.38;4943325;28;20023;-82
2022/03/11 05:05:50;;;;;;;16.30;6.25;;;;;;;5.71;45.07;101486.06;4982057;28;20085;-82
2022/03/11 05:08:40;;;;;;;14.80;6.13;;;;;;;5.72;45.19;101480.81;5045117;28;20040;-82
2022/03/11 05:11:29;;;;;;;15.57;7.25;;;;;;;5.66;45.21;101478.25;5060041;28;20115;-82
2022/03/11 05:14:17;;;;;;;14.95;6.18;;;;;;;5.60;45.62;101473.06;5040120;28;20349;-82
2022/03/11 05:17:09;;;;;;;15.27;6.75;;;;;;;5.56;45.42;101482.72;5026277;28;20067;-82
2022/03/11 05:20:22;;;;;;;14.40;6.88;;;;;;;5.53;45.42;101472.25;5040382;28;20502;-82
2022/03/11 05:23:21;;;;;;;;;;;;;;;5.59;45.17;101471.31;5058887;28;20479;-81
2022/03/11 05:26:32;;;;;;;11.63;5.70;;;;;;;5.63;45.12;101478.28;5066407;28;19920;-82
2022/03/11 05:29:04;;;;;;;11.77;6.30;;;;;;;5.59;45.88;101466.94;5063504;28;20032;-81
2022/03/11 05:32:08;;;;;;;17.10;6.38;;;;;;;5.66;45.37;101472.13;5078781;28;20093;-82
2022/03/11 05:35:36;;;;;;;18.20;6.50;;;;;;;5.65;45.22;101463.41;5061967;28;20551;-82
2022/03/11 05:38:47;;;;;;;13.98;6.97;;;;;;;5.66;45.65;101465.13;4981475;28;20041;-81
2022/03/11 05:41:22;;;;;;;10.40;5.95;;;;;;;5.61;45.99;101459.06;4979565;28;20568;-82
2022/03/11 05:44:24;;;;;;;11.23;6.03;;;;;;;5.60;46.12;101460.81;4966912;28;20132;-82
2022/03/11 05:53:41;;;;;;;15.90;6.50;;;;;;;5.68;45.90;101462.50;4982654;28;20056;-82
2022/03/11 05:56:55;;;;;;;13.63;6.15;;;;;;;5.74;45.91;101457.19;5000926;28;20121;-82
2022/03/11 06:00:14;;;;;;;12.52;5.80;;;;;;;5.82;45.66;101460.59;4998698;28;20034;-82
2022/03/11 06:06:46;;;;;;;16.35;6.65;;;;;;;5.83;45.76;101452.72;4928546;29;20042;-82
2022/03/11 06:09:38;;;;;;;16.85;7.00;;;;;;;5.90;45.92;101450.88;4980292;28;20505;-82
2022/03/11 06:15:27;;;;;;;15.68;6.70;;;;;;;5.82;46.34;101455.34;5039267;28;20684;-82
2022/03/11 06:18:24;;;;;;;16.30;7.32;;;;;;;5.80;46.65;101444.88;5038896;28;20078;-81
2022/03/11 06:24:26;;;;;;;16.08;7.10;;;;;;;6.01;45.74;101448.16;5039154;28;20060;-81
2022/03/11 06:27:18;;;;;;;12.05;6.90;;;;;;;6.02;46.16;101448.16;5038584;28;20047;-82
2022/03/11 06:30:27;;;;;;;14.10;7.03;;;;;;;6.08;45.69;101455.97;5033941;28;20524;-81
2022/03/11 06:33:34;;;;;;;14.77;7.40;;;;;;;6.09;45.67;101455.06;5048506;28;20408;-82
2022/03/11 06:36:54;;;;;;;17.92;7.25;;;;;;;6.14;45.79;101470.75;5059788;28;20479;-82
2022/03/11 06:39:26;;;;;;;14.35;6.93;;;;;;;6.14;45.81;101461.13;5053456;28;20032;-81
2022/03/11 06:42:55;;;;;;;24.15;7.88;;;;;;;6.24;45.69;101456.63;5059384;28;20047;-82
2022/03/11 06:45:46;;;;;;;13.98;7.07;;;;;;;6.28;45.83;101465.34;5062838;28;21020;-82
2022/03/11 06:48:29;;;;;;;13.18;6.35;;;;;;;6.30;45.88;101447.84;5061430;28;20601;-82
2022/03/11 06:52:07;;;;;;;12.85;6.90;;;;;;;6.44;45.47;101459.03;5062621;28;20527;-82
2022/03/11 06:54:46;;;;;;;14.63;7.72;;;;;;;6.42;45.82;101454.66;4960103;28;20478;-82
2022/03/11 06:58:04;;;;;;;19.15;6.10;;;;;;;6.46;45.64;101462.50;5057633;28;20049;-82
2022/03/11 07:01:24;;;;;;;19.85;7.28;;;;;;;6.52;45.71;101457.16;5060876;28;20036;-82
2022/03/11 07:04:25;;;;;;;15.03;6.73;;;;;;;6.56;45.72;101464.09;4984029;28;20442;-81
2022/03/11 07:07:29;;;;;;;17.38;7.10;;;;;;;6.64;45.40;101456.13;5087464;28;20488;-82
2022/03/11 07:10:27;;;;;;;14.45;6.38;;;;;;;6.71;45.20;101451.63;5059705;28;20083;-82
2022/03/11 07:13:20;;;;;;;19.73;7.65;;;;;;;6.75;45.65;101441.06;5061212;28;20032;-82
2022/03/11 07:16:52;;;;;;;13.13;6.82;;;;;;;6.85;45.30;101439.16;5060220;28;20671;-81
2022/03/11 07:20:23;;;;;;;14.68;6.88;;;;;;;6.95;45.25;101450.41;5059018;28;20032;-82
2022/03/11 07:23:16;;;;;;;11.88;7.00;;;;;;;6.99;44.74;101450.31;5059955;28;20024;-82
2022/03/11 07:25:55;;;;;;;17.83;7.05;;;;;;;7.07;44.83;101443.19;5058603;28;20074;-82
2022/03/11 07:28:45;;;;;;;14.82;7.32;;;;;;;7.14;44.84;101443.97;5055015;28;20029;-82
2022/03/11 07:31:50;;;;;;;19.45;7.70;;;;;;;7.23;45.12;101446.47;5062238;28;20052;-82
2022/03/11 07:34:31;;;;;;;17.30;7.60;;;;;;;7.26;45.06;101446.38;5044910;28;20040;-81
2022/03/11 07:40:49;;;;;;;17.67;8.23;;;;;;;7.47;44.12;101447.81;5065726;28;20068;-82
2022/03/11 07:43:41;;;;;;;17.35;8.15;;;;;;;7.60;43.92;101449.31;5044928;28;20404;-82
2022/03/11 07:47:06;;;;;;;18.55;7.07;;;;;;;7.67;43.81;101443.03;5059236;28;20575;-82
2022/03/11 07:49:50;;;;;;;16.00;7.85;;;;;;;7.75;43.80;101447.31;5060910;28;20040;-82
2022/03/11 07:53:01;;;;;;;12.73;7.85;;;;;;;7.85;43.64;101448.84;4974034;28;20058;-82
2022/03/11 07:55:39;;;;;;;15.75;7.30;;;;;;;7.91;43.42;101444.31;5064328;28;20559;-82
2022/03/11 07:58:29;;;;;;;14.65;7.53;;;;;;;7.99;42.90;101438.06;5060480;28;20103;-82
2022/03/11 08:01:26;;;;;;;15.18;7.88;;;;;;;8.19;42.98;101425.34;5048570;28;20031;-82
2022/03/11 08:04:18;;;;;;;21.60;8.82;;;;;;;8.31;42.69;101429.50;5046654;28;20456;-82
2022/03/11 08:07:16;;;;;;;13.20;6.93;;;;;;;8.52;42.45;101420.28;5023034;28;20073;-82
2022/03/11 08:10:33;;;;;;;21.55;9.30;;;;;;;8.94;41.97;101421.06;5019920;28;20042;-82
2022/03/11 08:14:09;;;;;;;16.52;7.72;;;;;;;9.28;41.08;101421.09;5002733;28;20060;-82
2022/03/11 08:17:10;;;;;;;24.35;8.38;;;;;;;9.57;40.90;101417.69;5009253;28;20561;-82
2022/03/11 08:20:30;;;;;;;21.70;10.00;;;;;;;10.00;40.80;101411.22;5018364;28;20025;-82
2022/03/11 08:23:18;;;;;;;16.75;8.65;;;;;;;10.16;39.06;101407.22;4944739;28;20063;-82
2022/03/11 08:25:45;;;;;;;18.38;8.27;;;;;;;10.44;39.21;101398.50;4939811;28;20045;-83
2022/03/11 08:28:12;;;;;;;19.77;9.23;;;;;;;10.65;38.20;101408.41;4983412;28;20046;-83
2022/03/11 08:30:37;;;;;;;18.15;9.82;;;;;;;10.70;38.75;101411.78;4984640;28;20034;-83
2022/03/11 08:33:04;;;;;;;22.00;9.65;;;;;;;11.04;38.62;101404.53;5006623;28;20504;-83
2022/03/11 08:35:29;;;;;;;14.18;9.43;;;;;;;11.14;37.98;101395.34;5004330;28;20025;-83
2022/03/11 08:37:55;;;;;;;23.35;10.18;;;;;;;11.35;37.73;101397.28;5012035;28;20036;-82
2022/03/11 08:40:23;;;;;;;26.50;9.02;;;;;;;11.36;36.95;101399.00;5044184;28;20104;-81
2022/03/11 08:42:50;;;;;;;19.00;9.73;;;;;;;11.53;36.62;101395.78;5046976;28;20041;-83
2022/03/11 08:45:16;;;;;;;18.27;9.77;;;;;;;11.73;36.83;101392.41;5048817;28;20132;-84
2022/03/11 08:47:41;;;;;;;19.33;9.55;;;;;;;12.20;35.93;101392.47;5046510;28;20032;-83
2022/03/11 08:50:07;;;;;;;18.50;9.43;;;;;;;12.52;35.52;101396.53;5063900;28;20103;-83
2022/03/11 08:52:32;;;;;;;14.45;9.13;;;;;;;12.75;34.77;101390.31;5046696;28;20119;-83
2022/03/11 08:54:58;;;;;;;19.63;11.00;;;;;;;12.85;35.17;101396.13;5048255;28;20115;-83
2022/03/11 08:57:23;;;;;;;17.00;9.80;;;;;;;12.61;34.57;101396.19;5047094;28;20120;-83
2022/03/11 08:59:49;;;;;;;17.80;10.32;;;;;;;12.38;35.03;101385.59;5031167;28;20072;-83
2022/03/11 09:02:15;;;;;;;18.33;11.25;;;;;;;12.26;35.42;101397.53;5047174;28;20506;-83
2022/03/11 09:04:41;;;;;;;19.08;11.50;;;;;;;12.52;35.62;101399.19;5046836;28;20125;-82
2022/03/11 09:07:07;;;;;;;14.13;8.85;;;;;;;12.92;34.84;101387.00;5047390;28;20052;-83
2022/03/11 09:09:32;;;;;;;15.07;8.95;;;;;;;13.30;33.72;101393.38;5029511;28;20389;-84
2022/03/11 09:11:59;;;;;;;17.95;10.55;;;;;;;13.67;33.16;101392.66;5047598;28;20053;-83
2022/03/11 09:14:24;;;;;;;21.77;10.50;;;;;;;13.95;34.16;101383.44;5048729;28;20029;-84
2022/03/11 09:16:50;;;;;;;18.95;8.32;;;;;;;14.50;31.77;101387.09;5048330;28;20037;-83
2022/03/11 09:19:15;;;;;;;16.38;8.52;;;;;;;15.21;30.87;101375.63;5029240;28;20036;-83
2022/03/11 09:21:41;;;;;;;16.90;9.63;;;;;;;15.36;30.50;101376.63;5031516;28;20033;-83
2022/03/11 09:24:07;;;;;;;18.05;8.05;;;;;;;15.73;29.99;101373.78;5048073;28;20087;-83
2022/03/11 09:27:11;;;;;;;14.57;8.43;;;;;;;15.93;30.11;101374.53;5074325;28;20040;-83
2022/03/11 09:30:15;;;;;;;15.80;9.65;;;;;;;16.74;28.89;101373.56;5039151;28;20048;-83
2022/03/11 09:32:50;;;;;;;17.08;10.80;;;;;;;16.08;29.11;101355.88;5081937;28;20522;-83
2022/03/11 09:35:16;;;;;;;19.90;10.13;;;;;;;16.21;29.60;101368.53;5063639;28;20035;-83
2022/03/11 09:38:25;;;;;;;14.75;9.20;;;;;;;17.26;29.11;101364.31;5067713;28;20020;-83
2022/03/11 09:40:57;;;;;;;14.57;8.85;;;;;;;18.15;27.08;101356.19;5086299;28;20032;-83
2022/03/11 09:47:06;;;;;;;18.98;9.93;;;;;;;19.29;27.08;101345.06;5079702;28;20077;-83
2022/03/11 09:53:04;;;;;;;19.13;9.10;;;;;;;20.40;24.39;101347.03;5036019;28;20055;-84
2022/03/11 09:56:14;;;;;;;17.15;10.10;;;;;;;20.60;24.58;101338.38;5036586;28;20499;-83
2022/03/11 09:58:51;;;;;;;14.88;10.40;;;;;;;20.54;23.81;101332.59;5038924;28;20196;-83
2022/03/11 10:01:17;;;;;;;15.40;9.65;;;;;;;20.44;24.84;101313.59;5028097;28;20040;-84
2022/03/11 10:03:42;;;;;;;20.02;10.27;;;;;;;20.42;23.78;101318.22;5023380;28;20044;-84
2022/03/11 10:06:07;;;;;;;21.98;11.30;;;;;;;18.67;26.83;101318.00;5014947;28;20053;-83
2022/03/11 10:08:38;;;;;;;15.05;9.48;;;;;;;19.32;26.03;101318.03;5023855;28;20039;-83
2022/03/11 10:11:26;;;;;;;16.23;10.52;;;;;;;18.74;26.79;101320.16;5025944;28;20028;-83
2022/03/11 10:14:04;;;;;;;14.50;8.77;;;;;;;19.49;25.82;101311.50;5026410;28;20462;-82
2022/03/11 10:16:30;;;;;;;20.73;10.25;;;;;;;19.18;25.66;101310.09;5040202;28;20381;-83
2022/03/11 10:19:10;;;;;;;14.35;10.05;;;;;;;18.80;25.90;101294.81;5022480;28;20167;-83
2022/03/11 10:21:38;;;;;;;16.23;9.32;;;;;;;19.56;25.76;101313.66;5039210;28;20495;-82
2022/03/11 10:24:10;;;;;;;15.68;9.18;;;;;;;19.77;25.22;101300.59;5023445;28;20116;-83
2022/03/11 10:26:53;;;;;;;15.05;10.30;;;;;;;19.24;26.04;101289.06;5040801;28;20096;-83
2022/03/11 10:29:19;;;;;;;;;;;;;;;19.46;26.22;101298.31;5040524;28;20505;-83
2022/03/11 10:31:47;;;;;;;16.88;10.85;;;;;;;20.40;24.98;101306.72;5022095;28;20303;-83
2022/03/11 10:34:19;;;;;;;13.75;9.20;;;;;;;20.60;24.88;101294.53;5039151;28;20087;-83
2022/03/11 10:36:49;;;;;;;14.20;9.13;;;;;;;21.33;23.97;101288.94;5039657;28;20482;-83
2022/03/11 10:39:17;;;;;;;16.65;9.23;;;;;;;21.59;23.13;101291.38;5021459;28;20061;-83
2022/03/11 10:41:43;;;;;;;14.82;9.82;;;;;;;21.99;23.18;101280.97;5039824;28;20045;-83
2022/03/11 10:44:12;;;;;;;17.35;9.88;;;;;;;22.05;22.94;101285.00;5038402;28;20020;-83
2022/03/11 10:46:38;;;;;;;19.08;9.85;;;;;;;21.89;23.07;101291.63;5071280;28;20048;-83
2022/03/11 10:49:04;;;;;;;16.98;9.93;;;;;;;22.02;22.75;101287.97;5080061;28;20576;-83
2022/03/11 10:51:31;;;;;;;16.08;9.90;;;;;;;21.72;22.84;101285.88;5081426;28;20046;-83
2022/03/11 10:53:59;;;;;;;18.67;11.32;;;;;;;20.94;23.96;101270.47;5082218;28;20299;-83
2022/03/11 10:56:34;;;;;;;17.98;9.63;;;;;;;20.63;24.11;101267.44;5064010;28;20518;-83
2022/03/11 10:59:04;;;;;;;16.85;11.90;;;;;;;20.28;24.53;101284.31;5081927;28;20030;-83
2022/03/11 11:01:40;;;;;;;18.30;11.88;;;;;;;20.28;25.95;101276.25;5082010;28;20032;-83
2022/03/11 11:04:12;;;;;;;17.00;10.93;;;;;;;21.63;24.51;101266.78;5061772;28;20480;-83
2022/03/11 11:06:37;;;;;;;20.05;10.88;;;;;;;22.27;23.66;101268.81;5063441;28;20062;-83
2022/03/11 11:09:04;;;;;;;21.45;11.23;;;;;;;22.54;22.76;101260.28;5082058;28;20814;-83
2022/03/11 11:11:30;;;;;;;17.00;10.95;;;;;;;22.50;22.34;101256.13;5081758;28;20027;-83
2022/03/11 11:13:58;;;;;;;20.90;11.80;;;;;;;22.70;22.36;101264.38;5064343;28;20115;-82
2022/03/11 11:16:27;;;;;;;17.10;12.02;;;;;;;22.06;22.71;101262.50;5083913;28;20036;-83
2022/03/11 11:18:56;;;;;;;16.48;10.75;;;;;;;21.78;22.74;101271.97;5080101;28;20030;-83
2022/03/11 11:21:24;;;;;;;19.38;10.55;;;;;;;22.05;22.42;101267.00;5062973;28;20103;-83
2022/03/11 11:23:54;;;;;;;17.45;12.27;;;;;;;21.80;23.57;101259.22;5082307;28;20412;-82
2022/03/11 11:26:21;;;;;;;22.38;12.50;;;;;;;22.10;23.30;101247.78;5081677;28;20036;-83
2022/03/11 11:28:47;;;;;;;15.52;10.70;;;;;;;22.34;22.45;101244.94;5064626;28;20127;-84
2022/03/11 11:31:16;;;;;;;22.80;13.98;;;;;;;22.41;23.19;101230.81;5078471;28;20040;-83
2022/03/11 11:33:44;;;;;;;20.95;12.48;;;;;;;22.24;23.23;101225.13;5064555;28;20031;-83
2022/03/11 11:36:09;;;;;;;25.00;14.15;;;;;;;22.25;22.72;101213.38;5080862;28;20059;-83
2022/03/11 11:38:37;;;;;;;21.40;11.93;;;;;;;22.03;22.85;101216.97;5082334;28;20028;-84
2022/03/11 11:41:26;;;;;;;20.48;12.95;;;;;;;21.74;24.02;101219.34;5080213;28;20482;-84
2022/03/11 11:43:53;;;;;;;22.45;12.70;;;;;;;21.25;23.47;101199.88;5081319;28;20027;-84
2022/03/11 11:46:20;;;;;;;22.92;12.45;;;;;;;21.33;24.03;101210.94;5080753;28;20108;-84
2022/03/11 11:48:54;;;;;;;22.35;12.70;;;;;;;21.26;24.28;101204.28;5080212;28;20575;-83
2022/03/11 11:51:21;;;;;;;21.42;12.85;;;;;;;20.98;23.70;101208.28;5080814;28;20024;-83
2022/03/11 11:53:54;;;;;;;19.27;11.95;;;;;;;20.60;25.17;101195.97;5082326;28;21478;-83
2022/03/11 11:56:33;;;;;;;22.77;12.80;;;;;;;20.36;25.81;101200.50;5081179;28;20027;-83
2022/03/11 11:59:02;;;;;;;24.55;14.57;;;;;;;20.58;25.88;101195.25;5082438;28;20023;-83
2022/03/11 12:01:39;;;;;;;29.17;13.40;;;;;;;21.09;25.31;101192.19;5064515;28;20772;-82
2022/03/11 12:04:34;;;;;;;23.63;12.82;;;;;;;21.08;24.77;101192.31;5082174;28;20032;-83
2022/03/11 12:07:00;;;;;;;23.00;13.05;;;;;;;20.93;25.11;101182.75;5080327;28;20016;-83
2022/03/11 12:09:45;;;;;;;23.92;13.48;;;;;;;21.16;25.05;101173.72;5081472;28;20327;-84
2022/03/11 12:12:22;;;;;;;25.58;12.90;;;;;;;21.10;24.42;101163.47;5080999;28;20023;-83
2022/03/11 12:14:53;;;;;;;22.70;14.30;;;;;;;20.57;25.59;101155.94;5060093;28;20488;-84
2022/03/11 12:17:38;;;;;;;21.83;13.35;;;;;;;20.47;25.20;101170.13;5065650;28;20036;-84
2022/03/11 12:20:33;;;;;;;21.90;12.68;;;;;;;19.76;26.79;101167.38;5083853;28;20479;-84
2022/03/11 12:23:16;;;;;;;25.50;13.02;;;;;;;20.15;25.87;101153.81;5065612;28;20063;-83
2022/03/11 12:25:50;;;;;;;24.90;13.63;;;;;;;20.04;25.59;101150.09;5064339;28;20110;-83
2022/03/11 12:28:24;;;;;;;19.45;12.68;;;;;;;19.95;25.97;101161.50;5083261;28;20103;-84
2022/03/11 12:30:49;;;;;;;23.35;13.57;;;;;;;19.90;25.95;101165.50;5079551;28;20035;-83
2022/03/11 12:33:24;;;;;;;19.70;13.30;;;;;;;19.75;26.58;101154.94;5047591;28;20020;-83
2022/03/11 12:35:52;;;;;;;22.42;13.38;;;;;;;19.48;26.34;101154.25;5062756;28;20298;-83
2022/03/11 12:38:23;;;;;;;22.45;13.90;;;;;;;19.38;26.94;101140.66;5064718;28;20395;-83
2022/03/11 12:40:50;;;;;;;23.63;13.80;;;;;;;19.40;27.26;101130.69;5060065;28;20495;-83
2022/03/11 12:43:17;;;;;;;30.00;15.95;;;;;;;19.64;26.24;101117.34;5045177;28;20024;-83
2022/03/11 12:45:54;;;;;;;23.70;13.45;;;;;;;19.27;26.40;101127.16;5042525;28;20066;-83
2022/03/11 12:48:22;;;;;;;23.67;14.10;;;;;;;19.32;26.40;101136.59;5062596;28;20400;-83
2022/03/11 12:50:48;;;;;;;24.17;14.93;;;;;;;18.91;27.37;101125.28;5056916;28;20024;-83
2022/03/11 12:53:15;;;;;;;27.05;16.52;;;;;;;19.11;27.84;101108.63;5053370;28;20056;-84
2022/03/11 12:55:44;;;;;;;26.75;17.48;;;;;;;19.48;26.82;101116.69;5058913;28;20025;-83
2022/03/11 12:58:16;;;;;;;23.42;15.88;;;;;;;19.54;27.28;101106.41;5062778;28;20123;-84
2022/03/11 13:00:44;;;;;;;21.17;12.75;;;;;;;19.66;27.29;101115.38;5065497;28;20501;-83
2022/03/11 13:03:11;;;;;;;27.08;13.75;;;;;;;19.76;26.52;101094.09;5064456;28;20024;-83
2022/03/11 13:05:39;;;;;;;26.73;14.10;;;;;;;19.46;27.19;101108.78;5060748;28;20347;-83
2022/03/11 13:08:07;;;;;;;25.88;13.45;;;;;;;19.60;26.77;101103.28;5042920;28;20500;-83
2022/03/11 13:10:34;;;;;;;28.42;16.08;;;;;;;19.37;26.82;101079.94;5045158;28;20146;-84
2022/03/11 13:13:01;;;;;;;25.95;13.23;;;;;;;19.45;27.19;101101.72;5064991;28;20109;-83
2022/03/11 13:15:29;;;;;;;19.50;12.20;;;;;;;18.98;27.88;101089.91;5064910;28;20024;-83
2022/03/11 13:17:57;;;;;;;22.42;13.02;;;;;;;18.94;29.08;101095.59;5065256;28;20104;-83
2022/03/11 13:20:36;;;;;;;20.92;13.63;;;;;;;19.27;29.12;101086.97;5068272;28;20039;-84
2022/03/11 13:23:15;;;;;;;20.35;12.48;;;;;;;19.56;27.76;101082.13;5064182;28;20052;-83
2022/03/11 13:25:46;;;;;;;23.92;13.23;;;;;;;19.61;27.67;101086.22;5047901;28;20039;-83
2022/03/11 13:28:22;;;;;;;22.35;12.20;;;;;;;19.51;27.38;101087.84;5065884;28;20185;-83
2022/03/11 13:30:47;;;;;;;43.67;24.23;;;;;;;19.57;27.23;101078.47;5051147;28;20021;-83